createdAt,value
2022-10-22T00:01:47.050Z,100689.63
2022-10-22T00:04:50.928Z,100673.06
2022-10-22T00:07:58.549Z,100666.06
2022-10-22T00:11:20.758Z,100674.06
2022-10-22T00:14:42.977Z,100680.56
2022-10-22T00:17:59.027Z,100680.50
2022-10-22T00:21:18.911Z,100676.19
2022-10-22T00:24:47.645Z,100671.28
2022-10-22T00:27:57.662Z,100675.09
2022-10-22T00:31:19.852Z,100674.28
2022-10-22T00:34:41.655Z,100673.19
2022-10-22T00:38:04.874Z,100670.97
2022-10-22T00:41:21.449Z,100654.72
2022-10-22T00:45:07.942Z,100642.47
2022-10-22T00:48:24.777Z,100642.31
2022-10-22T00:51:48.836Z,100635.28
2022-10-22T00:55:15.798Z,100645.91
2022-10-22T00:58:33.835Z,100641.00
2022-10-22T01:01:50.226Z,100645.31
2022-10-22T01:04:59.650Z,100648.25
2022-10-22T01:08:34.828Z,100660.50
2022-10-22T01:12:16.001Z,100654.56
2022-10-22T01:15:35.982Z,100657.81
2022-10-22T01:18:55.887Z,100649.44
2022-10-22T01:22:15.014Z,100652.13
2022-10-22T01:25:37.917Z,100648.94
2022-10-22T01:29:04.802Z,100645.47
2022-10-22T01:32:25.999Z,100647.88
2022-10-22T01:35:43.870Z,100654.41
2022-10-22T01:39:05.775Z,100658.72
2022-10-22T01:42:26.789Z,100649.44
2022-10-22T01:45:48.999Z,100641.09
2022-10-22T01:49:26.000Z,100632.25
2022-10-22T01:53:30.533Z,100621.19
2022-10-22T01:57:03.538Z,100612.19
2022-10-22T02:00:14.365Z,100605.09
2022-10-22T02:03:43.664Z,100620.66
2022-10-22T02:06:50.454Z,100629.06
2022-10-22T02:10:15.315Z,100611.66
2022-10-22T02:13:38.659Z,100624.72
2022-10-22T02:17:01.342Z,100610.34
2022-10-22T02:20:29.417Z,100622.09
2022-10-22T02:23:51.428Z,100626.69
2022-10-22T02:27:16.574Z,100643.91
2022-10-22T02:30:21.766Z,100637.13
2022-10-22T02:33:37.341Z,100629.81
2022-10-22T02:37:01.652Z,100631.75
2022-10-22T02:40:37.332Z,100630.66
2022-10-22T02:44:11.774Z,100642.34
2022-10-22T02:47:25.579Z,100636.94
2022-10-22T02:50:46.368Z,100637.63
2022-10-22T02:54:01.875Z,100645.03
2022-10-22T02:57:17.836Z,100638.59
2022-10-22T03:00:44.686Z,100633.53
2022-10-22T03:04:01.225Z,100641.38
2022-10-22T03:07:23.523Z,100655.81
2022-10-22T03:10:59.559Z,100657.47
2022-10-22T03:14:21.484Z,100652.56
2022-10-22T03:17:37.638Z,100653.13
2022-10-22T03:21:00.461Z,100647.19
2022-10-22T03:24:43.931Z,100649.31
2022-10-22T03:27:54.588Z,100640.44
2022-10-22T03:31:15.406Z,100632.28
2022-10-22T03:34:36.404Z,100635.88
2022-10-22T03:37:58.941Z,100622.13
2022-10-22T03:41:22.550Z,100604.53
2022-10-22T03:44:44.448Z,100606.19
2022-10-22T03:48:00.519Z,100576.69
2022-10-22T03:51:21.416Z,100571.81
2022-10-22T03:54:51.398Z,100586.44
2022-10-22T03:58:15.431Z,100591.56
2022-10-22T04:01:37.521Z,100609.44
2022-10-22T04:04:58.427Z,100610.50
2022-10-22T04:08:18.518Z,100618.88
2022-10-22T04:11:41.546Z,100634.84
2022-10-22T04:15:05.341Z,100627.81
2022-10-22T04:18:24.507Z,100605.09
2022-10-22T04:21:45.522Z,100606.47
2022-10-22T04:25:05.453Z,100616.75
2022-10-22T04:28:25.540Z,100623.59
2022-10-22T04:31:45.391Z,100615.75
2022-10-22T04:35:05.388Z,100617.09
2022-10-22T04:38:15.366Z,100612.75
2022-10-22T04:41:20.659Z,100624.91
2022-10-22T04:44:30.169Z,100623.06
2022-10-22T04:47:53.301Z,100620.34
2022-10-22T04:51:16.082Z,100615.22
2022-10-22T04:54:38.235Z,100609.84
2022-10-22T04:58:03.047Z,100608.72
2022-10-22T05:01:23.192Z,100611.78
2022-10-22T05:04:46.159Z,100610.13
2022-10-22T05:08:08.014Z,100607.16
2022-10-22T05:11:28.329Z,100611.50
2022-10-22T05:14:32.056Z,100600.41
2022-10-22T05:17:37.745Z,100609.63
2022-10-22T05:20:42.820Z,100608.25
2022-10-22T05:23:47.334Z,100608.50
2022-10-22T05:26:57.530Z,100610.09
2022-10-22T05:30:00.294Z,100607.69
2022-10-22T05:33:24.132Z,100620.91
2022-10-22T05:36:37.996Z,100616.38
2022-10-22T05:40:01.845Z,100628.00
2022-10-22T05:43:34.104Z,100621.47
2022-10-22T05:46:57.118Z,100624.16
2022-10-22T05:50:08.058Z,100628.47
2022-10-22T05:53:18.980Z,100626.31
2022-10-22T05:56:23.566Z,100627.97
2022-10-22T05:59:39.354Z,100629.03
2022-10-22T06:02:57.088Z,100631.47
2022-10-22T06:06:30.835Z,100645.22
2022-10-22T06:09:48.749Z,100651.72
2022-10-22T06:13:03.264Z,100647.91
2022-10-22T06:16:19.250Z,100648.69
2022-10-22T06:19:49.132Z,100658.66
2022-10-22T06:23:05.052Z,100656.50
2022-10-22T06:26:42.023Z,100655.69
2022-10-22T06:30:04.071Z,100658.34
2022-10-22T06:33:06.827Z,100663.13
2022-10-22T06:36:15.735Z,100658.78
2022-10-22T06:39:22.897Z,100662.59
2022-10-22T06:42:36.088Z,100669.88
2022-10-22T06:45:56.151Z,100669.81
2022-10-22T06:49:18.200Z,100669.47
2022-10-22T06:52:34.720Z,100672.91
2022-10-22T06:55:56.363Z,100690.13
2022-10-22T06:59:20.107Z,100676.75
2022-10-22T07:02:41.458Z,100668.78
2022-10-22T07:05:58.003Z,100653.94
2022-10-22T07:12:46.041Z,100656.44
2022-10-22T07:16:02.018Z,100653.69
2022-10-22T07:19:09.291Z,100657.00
2022-10-22T07:22:13.449Z,100653.38
2022-10-22T07:25:28.947Z,100647.44
2022-10-22T07:28:56.857Z,100659.19
2022-10-22T07:32:24.022Z,100656.16
2022-10-22T07:35:26.884Z,100643.88
2022-10-22T07:38:31.687Z,100656.16
2022-10-22T07:41:34.629Z,100639.63
2022-10-22T07:44:37.707Z,100648.59
2022-10-22T07:47:43.350Z,100651.25
2022-10-22T07:50:53.781Z,100663.72
2022-10-22T07:54:15.683Z,100660.13
2022-10-22T07:57:38.877Z,100652.94
2022-10-22T08:01:01.038Z,100653.31
2022-10-22T08:04:11.553Z,100661.72
2022-10-22T08:11:01.803Z,100643.00
2022-10-22T08:14:16.764Z,100650.56
2022-10-22T08:17:40.322Z,100655.22
2022-10-22T08:21:07.850Z,100651.41
2022-10-22T08:24:30.809Z,100654.63
2022-10-22T08:27:59.768Z,100652.38
2022-10-22T08:31:23.009Z,100649.47
2022-10-22T08:34:43.864Z,100655.09
2022-10-22T08:38:06.877Z,100655.38
2022-10-22T08:41:37.032Z,100650.47
2022-10-22T08:45:04.246Z,100664.91
2022-10-22T08:48:43.707Z,100663.25
2022-10-22T08:51:48.048Z,100659.09
2022-10-22T08:55:01.046Z,100660.72
2022-10-22T08:58:31.222Z,100657.44
2022-10-22T09:01:38.905Z,100668.34
2022-10-22T09:05:00.930Z,100665.41
2022-10-22T09:08:12.861Z,100638.50
2022-10-22T09:11:35.690Z,100655.53
2022-10-22T09:15:04.914Z,100665.31
2022-10-22T09:18:50.561Z,100673.38
2022-10-22T09:22:14.884Z,100668.09
2022-10-22T09:25:27.443Z,100666.59
2022-10-22T09:28:34.177Z,100660.41
2022-10-22T09:31:46.864Z,100662.13
2022-10-22T09:34:55.474Z,100662.91
2022-10-22T09:38:08.214Z,100665.44
2022-10-22T09:41:24.545Z,100673.91
2022-10-22T09:44:47.849Z,100682.44
2022-10-22T09:48:13.534Z,100665.28
2022-10-22T09:51:40.403Z,100669.97
2022-10-22T09:54:53.647Z,100667.47
2022-10-22T09:58:14.375Z,100657.22
2022-10-22T10:01:38.470Z,100651.91
2022-10-22T10:04:57.369Z,100650.47
2022-10-22T10:08:15.339Z,100649.66
2022-10-22T10:11:54.652Z,100653.56
2022-10-22T10:15:15.116Z,100649.06
2022-10-22T10:18:28.722Z,100645.91
2022-10-22T10:22:00.734Z,100625.41
2022-10-22T10:25:21.429Z,100630.56
2022-10-22T10:28:48.959Z,100639.28
2022-10-22T10:31:57.714Z,100639.53
2022-10-22T10:35:19.496Z,100622.22
2022-10-22T10:38:41.500Z,100634.91
2022-10-22T10:42:05.032Z,100634.91
2022-10-22T10:45:38.341Z,100633.84
2022-10-22T10:48:48.637Z,100639.28
2022-10-22T10:52:10.615Z,100638.03
2022-10-22T10:55:33.455Z,100643.19
2022-10-22T10:58:57.663Z,100649.44
2022-10-22T11:02:28.627Z,100650.94
2022-10-22T11:05:39.418Z,100652.91
2022-10-22T11:09:02.593Z,100656.88
2022-10-22T11:12:16.572Z,100656.25
2022-10-22T11:15:40.746Z,100649.16
2022-10-22T11:19:22.738Z,100642.72
2022-10-22T11:22:44.385Z,100645.25
2022-10-22T11:25:56.793Z,100639.16
2022-10-22T11:29:16.546Z,100632.72
2022-10-22T11:32:31.557Z,100613.88
2022-10-22T11:35:44.725Z,100612.50
2022-10-22T11:38:48.722Z,100609.13
2022-10-22T11:42:06.066Z,100608.69
2022-10-22T11:45:20.545Z,100613.00
2022-10-22T11:48:37.879Z,100604.34
2022-10-22T11:51:54.276Z,100594.06
2022-10-22T11:55:37.077Z,100593.91
2022-10-22T11:58:52.232Z,100598.41
2022-10-22T12:02:40.511Z,100606.59
2022-10-22T12:05:46.173Z,100603.22
2022-10-22T12:08:54.684Z,100598.69
2022-10-22T12:12:15.485Z,100593.88
2022-10-22T12:15:27.912Z,100595.16
2022-10-22T12:18:56.301Z,100590.84
2022-10-22T12:22:27.077Z,100588.97
2022-10-22T12:25:48.168Z,100580.72
2022-10-22T12:29:09.246Z,100574.28
2022-10-22T12:32:15.293Z,100564.34
2022-10-22T12:35:42.161Z,100573.97
2022-10-22T12:39:17.055Z,100575.53
2022-10-22T12:42:38.251Z,100570.41
2022-10-22T12:45:45.023Z,100576.19
2022-10-22T12:49:01.271Z,100574.91
2022-10-22T12:52:14.048Z,100594.44
2022-10-22T12:55:28.030Z,100594.91
2022-10-22T12:58:41.735Z,100586.06
2022-10-22T13:01:59.395Z,100589.47
2022-10-22T13:05:17.748Z,100594.09
2022-10-22T13:08:41.168Z,100588.50
2022-10-22T13:12:10.062Z,100588.63
2022-10-22T13:15:40.870Z,100588.97
2022-10-22T13:18:52.570Z,100580.56
2022-10-22T13:22:16.240Z,100580.88
2022-10-22T13:25:39.677Z,100595.03
2022-10-22T13:28:54.763Z,100600.47
2022-10-22T13:32:11.185Z,100599.56
2022-10-22T13:35:49.596Z,100586.03
2022-10-22T13:39:11.604Z,100577.53
2022-10-22T13:42:32.612Z,100578.16
2022-10-22T13:45:54.751Z,100586.97
2022-10-22T13:49:16.578Z,100602.06
2022-10-22T13:52:35.857Z,100599.50
2022-10-22T13:55:52.483Z,100594.22
2022-10-22T13:59:18.536Z,100599.56
2022-10-22T14:02:30.540Z,100598.13
2022-10-22T14:05:53.197Z,100604.69
2022-10-22T14:09:02.401Z,100603.09
2022-10-22T14:12:17.670Z,100602.28
2022-10-22T14:15:31.055Z,100615.94
2022-10-22T14:18:37.398Z,100599.69
2022-10-22T14:21:41.341Z,100597.75
2022-10-22T14:24:47.391Z,100605.28
2022-10-22T14:27:56.687Z,100605.44
2022-10-22T14:31:19.855Z,100596.44
2022-10-22T14:34:51.855Z,100593.34
2022-10-22T14:38:01.783Z,100593.75
2022-10-22T14:41:15.993Z,100603.88
2022-10-22T14:44:25.593Z,100597.38
2022-10-22T14:47:28.763Z,100597.88
2022-10-22T14:50:35.636Z,100607.53
2022-10-22T14:53:41.301Z,100612.66
2022-10-22T14:56:50.257Z,100612.00
2022-10-22T15:00:05.982Z,100611.13
2022-10-22T15:03:26.790Z,100622.38
2022-10-22T15:06:50.988Z,100627.13
2022-10-22T15:10:13.859Z,100618.28
2022-10-22T15:13:37.852Z,100615.69
2022-10-22T15:17:01.974Z,100619.91
2022-10-22T15:20:21.961Z,100622.41
2022-10-22T15:23:25.830Z,100619.31
2022-10-22T15:26:33.729Z,100618.75
2022-10-22T15:29:38.809Z,100620.22
2022-10-22T15:32:55.147Z,100630.63
2022-10-22T15:36:16.494Z,100624.50
2022-10-22T15:39:40.839Z,100626.44
2022-10-22T15:42:44.251Z,100614.19
2022-10-22T15:46:08.218Z,100631.31
2022-10-22T15:49:13.187Z,100630.03
2022-10-22T15:52:26.440Z,100629.63
2022-10-22T15:55:39.849Z,100633.84
2022-10-22T15:58:53.897Z,100650.19
2022-10-22T16:01:58.049Z,100655.72
2022-10-22T16:05:02.947Z,100656.03
2022-10-22T16:08:25.341Z,100669.25
2022-10-22T16:11:48.864Z,100681.53
2022-10-22T16:15:10.289Z,100685.53
2022-10-22T16:18:26.726Z,100691.16
2022-10-22T16:21:47.658Z,100687.19
2022-10-22T16:25:17.648Z,100693.31
2022-10-22T16:28:43.376Z,100705.09
2022-10-22T16:32:05.368Z,100723.09
2022-10-22T16:35:15.887Z,100736.34
2022-10-22T16:38:34.816Z,100733.91
2022-10-22T16:41:44.211Z,100739.63
2022-10-22T16:44:48.302Z,100753.91
2022-10-22T16:48:06.019Z,100747.50
2022-10-22T16:51:17.405Z,100754.84
2022-10-22T16:54:27.657Z,100757.13
2022-10-22T16:57:32.049Z,100747.91
2022-10-22T17:00:45.867Z,100765.38
2022-10-22T17:04:04.708Z,100757.34
2022-10-22T17:07:14.339Z,100762.88
2022-10-22T17:10:37.527Z,100767.56
2022-10-22T17:14:11.410Z,100759.78
2022-10-22T17:17:33.796Z,100760.06
2022-10-22T17:20:58.073Z,100754.38
2022-10-22T17:24:17.637Z,100751.97
2022-10-22T17:27:26.163Z,100756.34
2022-10-22T17:30:49.479Z,100754.22
2022-10-22T17:34:25.547Z,100758.84
2022-10-22T17:37:39.436Z,100773.22
2022-10-22T17:41:06.966Z,100772.72
2022-10-22T17:44:34.758Z,100767.56
2022-10-22T17:47:57.561Z,100776.22
2022-10-22T17:51:15.603Z,100784.16
2022-10-22T17:54:36.549Z,100780.34
2022-10-22T17:57:39.932Z,100775.94
2022-10-22T18:00:47.673Z,100772.06
2022-10-22T18:04:30.536Z,100790.84
2022-10-22T18:08:04.397Z,100793.84
2022-10-22T18:11:28.631Z,100794.06
2022-10-22T18:14:50.419Z,100805.72
2022-10-22T18:18:10.543Z,100810.94
2022-10-22T18:21:26.660Z,100811.97
2022-10-22T18:24:29.827Z,100799.44
2022-10-22T18:27:34.760Z,100799.03
2022-10-22T18:30:57.132Z,100806.09
2022-10-22T18:34:07.567Z,100815.84
2022-10-22T18:37:29.862Z,100820.63
2022-10-22T18:40:59.526Z,100825.25
2022-10-22T18:44:25.100Z,100831.56
2022-10-22T18:47:48.273Z,100827.44
2022-10-22T18:51:13.153Z,100841.91
2022-10-22T18:54:24.158Z,100838.66
2022-10-22T18:57:41.986Z,100837.13
2022-10-22T19:01:05.395Z,100835.50
2022-10-22T19:04:41.137Z,100846.69
2022-10-22T19:07:44.472Z,100852.69
2022-10-22T19:10:51.834Z,100848.34
2022-10-22T19:13:58.260Z,100847.59
2022-10-22T19:17:22.285Z,100832.25
2022-10-22T19:20:38.657Z,100841.81
2022-10-22T19:24:10.180Z,100844.84
2022-10-22T19:27:40.405Z,100848.16
2022-10-22T19:30:50.797Z,100866.63
2022-10-22T19:33:57.525Z,100867.50
2022-10-22T19:37:04.856Z,100867.34
2022-10-22T19:40:09.386Z,100872.25
2022-10-22T19:43:14.395Z,100873.94
2022-10-22T19:46:22.298Z,100877.19
2022-10-22T19:49:43.336Z,100885.34
2022-10-22T19:53:10.223Z,100878.63
2022-10-22T19:56:49.266Z,100881.63
2022-10-22T20:00:07.202Z,100897.94
2022-10-22T20:03:36.398Z,100898.34
2022-10-22T20:07:02.898Z,100907.06
2022-10-22T20:10:22.409Z,100915.44
2022-10-22T20:13:48.285Z,100918.69
2022-10-22T20:17:11.229Z,100923.00
2022-10-22T20:20:26.425Z,100916.78
2022-10-22T20:23:51.358Z,100918.13
2022-10-22T20:27:05.560Z,100928.41
2022-10-22T20:30:29.306Z,100919.69
2022-10-22T20:33:51.379Z,100924.31
2022-10-22T20:37:15.202Z,100920.22
2022-10-22T20:40:41.251Z,100923.22
2022-10-22T20:44:03.273Z,100925.34
2022-10-22T20:47:19.277Z,100926.44
2022-10-22T20:50:25.215Z,100941.16
2022-10-22T20:53:28.752Z,100931.97
2022-10-22T20:56:32.706Z,100941.47
2022-10-22T20:59:43.630Z,100946.94
2022-10-22T21:02:48.411Z,100945.34
2022-10-22T21:06:04.381Z,100941.25
2022-10-22T21:09:15.367Z,100931.16
2022-10-22T21:12:28.174Z,100923.53
2022-10-22T21:15:35.373Z,100931.16
2022-10-22T21:18:42.950Z,100931.69
2022-10-22T21:22:04.808Z,100934.91
2022-10-22T21:25:27.979Z,100949.81
2022-10-22T21:28:46.923Z,100943.84
2022-10-22T21:32:10.189Z,100947.13
2022-10-22T21:35:31.906Z,100938.31
2022-10-22T21:38:47.974Z,100931.31
2022-10-22T21:42:01.836Z,100938.31
2022-10-22T21:45:31.837Z,100939.94
2022-10-22T21:48:59.858Z,100934.97
2022-10-22T21:52:20.210Z,100942.31
2022-10-22T21:55:45.913Z,100934.03
2022-10-22T21:59:07.825Z,100946.63
2022-10-22T22:02:28.911Z,100942.38
2022-10-22T22:05:52.171Z,100948.41
2022-10-22T22:09:11.912Z,100949.53
2022-10-22T22:12:34.874Z,100941.13
2022-10-22T22:15:55.851Z,100935.16
2022-10-22T22:19:08.986Z,100944.94
2022-10-22T22:22:32.025Z,100950.09
2022-10-22T22:26:04.010Z,100958.75
2022-10-22T22:29:21.947Z,100963.66
2022-10-22T22:32:37.847Z,100970.66
2022-10-22T22:36:07.913Z,100969.63
2022-10-22T22:39:26.961Z,100972.09
2022-10-22T22:42:50.929Z,100971.84
2022-10-22T22:46:16.390Z,100977.78
2022-10-22T22:49:43.983Z,100984.78
2022-10-22T22:53:06.984Z,100993.94
2022-10-22T22:56:32.664Z,101003.69
2022-10-22T22:59:47.099Z,101013.97
2022-10-22T23:02:55.526Z,101010.09
2022-10-22T23:06:19.825Z,101017.94
2022-10-22T23:09:39.835Z,101013.59
2022-10-22T23:12:55.790Z,101012.22
2022-10-22T23:16:13.731Z,101010.00
2022-10-22T23:19:23.167Z,101012.47
2022-10-22T23:22:37.581Z,101009.50
2022-10-22T23:25:40.853Z,101003.56
2022-10-22T23:29:04.598Z,101004.09
2022-10-22T23:32:40.564Z,101007.31
2022-10-22T23:36:03.594Z,101012.22
2022-10-22T23:39:29.541Z,101011.41
2022-10-22T23:42:53.699Z,101014.13
2022-10-22T23:46:12.842Z,101017.13
2022-10-22T23:49:35.511Z,101006.28
2022-10-22T23:52:52.030Z,101007.84
2022-10-22T23:56:15.518Z,101017.56
2022-10-22T23:59:27.628Z,101020.00
